Time;durP1;ratioP1;P1;durP2;ratioP2;P2;SDS_P1;SDS_P2;PMS_P1;PMS_P2;Temp;Humidity;BMP_temperature;BMP_pressure;BME280_temperature;BME280_humidity;BME280_pressure;Samples;Min_cycle;Max_cycle;Signal;HPM_P1;HPM_P2
2023/01/29 00:01:08;;;;;;;0.30;0.30;;;;;;;17.97;40.87;102641.94;5152228;27;20054;-47
2023/01/29 00:03:35;;;;;;;0.30;0.30;;;;;;;17.97;41.06;102644.69;5152594;27;20444;-45
2023/01/29 00:06:05;;;;;;;0.40;0.40;;;;;;;17.96;41.03;102641.09;5115108;27;20065;-48
2023/01/29 00:08:35;;;;;;;0.40;0.40;;;;;;;17.97;40.88;102647.44;5131534;27;20081;-46
2023/01/29 00:11:02;;;;;;;0.40;0.40;;;;;;;17.96;40.89;102635.56;5113047;28;20051;-46
2023/01/29 00:13:28;;;;;;;0.30;0.30;;;;;;;17.97;40.92;102645.53;5116089;27;20421;-46
2023/01/29 00:15:56;;;;;;;0.30;0.30;;;;;;;17.97;41.11;102636.41;5167376;27;20043;-46
2023/01/29 00:18:22;;;;;;;0.30;0.30;;;;;;;17.97;40.98;102639.19;5136018;27;20046;-46
2023/01/29 00:20:48;;;;;;;0.30;0.30;;;;;;;17.97;40.90;102641.94;5131220;28;20665;-46
2023/01/29 00:23:14;;;;;;;0.30;0.30;;;;;;;17.96;41.04;102631.94;5112604;28;20487;-45
2023/01/29 00:25:40;;;;;;;0.40;0.40;;;;;;;17.97;40.85;102625.38;5112626;28;20077;-46
2023/01/29 00:28:06;;;;;;;0.28;0.28;;;;;;;17.96;40.98;102629.19;5149437;27;20543;-46
2023/01/29 00:30:32;;;;;;;0.30;0.30;;;;;;;17.97;41.02;102628.16;5151857;27;20050;-47
2023/01/29 00:32:57;;;;;;;0.30;0.30;;;;;;;17.97;40.82;102626.22;5151767;27;20232;-45
2023/01/29 00:35:23;;;;;;;0.30;0.30;;;;;;;17.96;40.94;102623.69;5142643;27;20410;-46
2023/01/29 00:37:49;;;;;;;0.30;0.30;;;;;;;17.95;40.98;102620.09;5146843;27;20043;-45
2023/01/29 00:40:15;;;;;;;0.30;0.30;;;;;;;17.95;40.82;102620.09;5151618;27;20588;-46
2023/01/29 00:45:29;;;;;;;0.40;0.40;;;;;;;17.96;40.96;102623.69;5130227;27;20066;-48
2023/01/29 00:47:55;;;;;;;0.30;0.30;;;;;;;17.96;41.21;102620.94;5151493;27;20157;-48
2023/01/29 00:50:20;;;;;;;0.40;0.40;;;;;;;17.97;40.89;102619.88;5133841;27;20409;-49
2023/01/29 00:52:48;;;;;;;0.32;0.32;;;;;;;17.96;40.88;102608.00;5130856;28;20047;-49
2023/01/29 00:55:14;;;;;;;0.20;0.20;;;;;;;17.96;40.99;102609.91;5130687;28;20075;-48
2023/01/29 00:57:39;;;;;;;0.22;0.22;;;;;;;17.95;40.95;102614.56;5126616;27;20281;-48
2023/01/29 01:00:09;;;;;;;0.30;0.30;;;;;;;17.96;40.86;102616.28;5151611;27;20416;-49
2023/01/29 01:03:06;;;;;;;0.30;0.30;;;;;;;17.97;40.94;102628.16;5151178;27;20322;-49
2023/01/29 01:05:20;;;;;;;0.32;0.32;;;;;;;17.96;40.77;102618.16;5136050;27;20542;-48
2023/01/29 01:07:48;;;;;;;0.30;0.30;;;;;;;17.97;40.97;102622.63;5132467;27;20051;-48
2023/01/29 01:10:20;;;;;;;0.75;0.40;;;;;;;17.96;40.89;102623.69;5151003;27;20076;-48
2023/01/29 01:12:49;;;;;;;0.30;0.30;;;;;;;17.97;40.79;102629.00;5116729;27;20043;-48
2023/01/29 01:15:16;;;;;;;0.30;0.30;;;;;;;17.96;40.88;102630.06;5117952;28;20047;-49
2023/01/29 01:17:41;;;;;;;0.40;0.40;;;;;;;17.95;40.97;102635.78;5145249;27;20070;-48
2023/01/29 01:20:08;;;;;;;0.30;0.30;;;;;;;17.96;40.83;102626.44;5151250;27;20399;-48
2023/01/29 01:22:34;;;;;;;0.30;0.30;;;;;;;17.96;40.90;102623.69;5151014;27;20050;-49
2023/01/29 01:25:00;;;;;;;0.30;0.30;;;;;;;17.96;40.96;102632.81;5150925;27;20042;-48
2023/01/29 01:27:26;;;;;;;0.30;0.30;;;;;;;17.95;40.85;102625.59;5132019;27;20049;-49
2023/01/29 01:29:51;;;;;;;0.40;0.40;;;;;;;17.95;40.97;102620.09;5150604;27;20047;-49
2023/01/29 01:32:17;;;;;;;0.30;0.30;;;;;;;17.96;40.71;102621.78;5150524;27;20521;-48
2023/01/29 01:34:44;;;;;;;0.30;0.30;;;;;;;17.96;40.94;102608.00;5150693;27;20069;-49
2023/01/29 01:37:10;;;;;;;0.30;0.30;;;;;;;17.96;40.90;102590.59;5149168;27;20099;-50
2023/01/29 01:39:36;;;;;;;0.30;0.30;;;;;;;17.95;41.03;102595.28;5129608;27;20471;-48
2023/01/29 01:42:02;;;;;;;0.30;0.30;;;;;;;17.95;40.83;102594.44;5111503;28;20051;-49
2023/01/29 01:44:52;;;;;;;0.30;0.30;;;;;;;17.96;40.80;102577.69;5094811;28;20077;-48
2023/01/29 01:47:22;;;;;;;0.30;0.30;;;;;;;17.95;40.78;102584.25;5097993;28;20088;-48
2023/01/29 01:49:48;;;;;;;0.30;0.30;;;;;;;17.95;40.79;102587.00;5129916;27;20062;-48
2023/01/29 01:52:15;;;;;;;0.40;0.40;;;;;;;17.95;40.65;102581.50;5130114;28;20070;-49
2023/01/29 01:54:41;;;;;;;0.43;0.43;;;;;;;17.96;40.69;102587.84;5129690;28;20058;-48
2023/01/29 01:57:15;;;;;;;0.30;0.30;;;;;;;17.96;40.90;102594.22;5094138;28;20083;-48
2023/01/29 01:59:51;;;;;;;0.40;0.40;;;;;;;17.97;40.98;102592.31;5148221;27;20043;-48
2023/01/29 02:10:40;;;;;;;0.30;0.30;;;;;;;17.96;40.87;102594.22;5134443;27;20095;-49
2023/01/29 02:13:06;;;;;;;0.30;0.30;;;;;;;17.96;41.07;102594.22;5131418;27;20078;-49
2023/01/29 02:15:32;;;;;;;0.40;0.40;;;;;;;17.95;40.99;102587.00;5162489;27;20054;-49
2023/01/29 02:17:58;;;;;;;0.30;0.30;;;;;;;17.96;40.82;102596.13;5118100;27;20134;-49
2023/01/29 02:20:26;;;;;;;0.38;0.38;;;;;;;17.95;40.70;102594.44;5129535;28;20061;-49
2023/01/29 02:23:04;;;;;;;0.40;0.40;;;;;;;17.94;40.77;102590.84;5111164;28;20384;-48
2023/01/29 02:25:51;;;;;;;0.40;0.40;;;;;;;17.95;40.89;102595.28;5129420;28;20070;-48
2023/01/29 02:28:31;;;;;;;0.40;0.40;;;;;;;17.96;40.98;102612.66;5129187;27;20047;-48
2023/01/29 02:31:11;;;;;;;0.30;0.30;;;;;;;17.95;40.90;102622.00;5129160;28;20498;-49
2023/01/29 02:34:05;;;;;;;0.30;0.30;;;;;;;17.95;40.99;102622.00;5110762;28;20051;-50
2023/01/29 02:36:42;;;;;;;0.30;0.30;;;;;;;17.93;40.99;102633.28;5113700;27;20055;-47
2023/01/29 02:39:20;;;;;;;0.30;0.30;;;;;;;17.94;40.81;102640.47;5111271;28;20043;-48
2023/01/29 02:42:11;;;;;;;0.30;0.30;;;;;;;17.94;40.99;102645.13;5129348;28;20467;-53
2023/01/29 02:44:50;;;;;;;0.30;0.30;;;;;;;17.95;40.94;102633.03;5114903;28;20047;-49
2023/01/29 02:47:22;;;;;;;0.30;0.30;;;;;;;17.94;40.86;102643.22;5129161;27;20075;-48
2023/01/29 02:49:57;;;;;;;0.30;0.30;;;;;;;17.95;40.85;102646.81;5129147;27;20121;-48
2023/01/29 02:52:48;;;;;;;0.30;0.30;;;;;;;17.95;40.92;102638.53;5129174;27;20047;-49
2023/01/29 02:55:21;;;;;;;0.30;0.30;;;;;;;17.95;40.85;102635.78;5132563;27;20086;-48
2023/01/29 02:57:47;;;;;;;0.30;0.30;;;;;;;17.95;40.97;102619.25;5114343;27;20047;-48
2023/01/29 03:00:17;;;;;;;0.38;0.38;;;;;;;17.94;40.78;102618.41;5132668;28;20483;-49
2023/01/29 03:02:51;;;;;;;0.40;0.40;;;;;;;17.94;40.63;102612.91;5132646;28;20039;-49
2023/01/29 03:05:21;;;;;;;0.40;0.40;;;;;;;17.94;40.65;102623.09;5114706;28;20046;-48
2023/01/29 03:07:52;;;;;;;0.38;0.38;;;;;;;17.95;40.79;102614.56;5114348;27;20078;-49
2023/01/29 03:10:25;;;;;;;0.40;0.40;;;;;;;17.95;40.86;102610.97;5132069;28;20054;-49
2023/01/29 03:13:04;;;;;;;0.40;0.40;;;;;;;17.94;40.79;102601.88;5117536;28;20181;-48
2023/01/29 03:15:38;;;;;;;0.40;0.40;;;;;;;17.93;40.98;102605.72;5126955;27;20486;-49
2023/01/29 03:18:08;;;;;;;0.32;0.32;;;;;;;17.94;40.64;102601.03;5150764;27;20062;-50
2023/01/29 03:20:39;;;;;;;0.40;0.40;;;;;;;17.95;40.80;102602.72;5128192;28;20046;-50
2023/01/29 03:23:10;;;;;;;0.40;0.40;;;;;;;17.94;40.98;102601.88;5113751;28;20141;-48
2023/01/29 03:34:06;;;;;;;0.40;0.40;;;;;;;17.95;40.71;102613.75;5121168;27;20051;-48
2023/01/29 03:36:38;;;;;;;0.30;0.30;;;;;;;17.94;40.79;102617.56;5129437;27;20039;-49
2023/01/29 03:39:06;;;;;;;0.38;0.38;;;;;;;17.94;41.17;102615.66;5134519;27;20078;-48
2023/01/29 03:41:35;;;;;;;0.40;0.40;;;;;;;17.94;40.70;102618.41;5138272;27;20084;-48
2023/01/29 03:44:11;;;;;;;0.30;0.30;;;;;;;17.95;40.79;102616.50;5113834;28;20161;-48
2023/01/29 03:46:47;;;;;;;0.40;0.40;;;;;;;17.94;40.77;102617.56;5119476;27;20053;-48
2023/01/29 03:49:38;;;;;;;0.30;0.30;;;;;;;17.93;40.80;102610.38;5152661;27;20085;-49
2023/01/29 03:52:14;;;;;;;0.30;0.30;;;;;;;17.94;40.81;102617.56;5120590;27;20521;-49
2023/01/29 03:55:09;;;;;;;0.32;0.32;;;;;;;17.94;40.67;102606.56;5152491;27;20092;-48
2023/01/29 03:57:40;;;;;;;0.30;0.30;;;;;;;17.94;40.79;102609.31;5138099;27;20123;-48
2023/01/29 04:00:13;;;;;;;0.40;0.40;;;;;;;17.93;40.78;102611.22;5133677;27;20050;-50
2023/01/29 04:02:47;;;;;;;0.40;0.40;;;;;;;17.94;40.73;102603.78;5133827;27;20042;-48
2023/01/29 04:05:17;;;;;;;0.30;0.30;;;;;;;17.94;40.81;102609.31;5134010;27;20699;-48
2023/01/29 04:07:43;;;;;;;0.30;0.30;;;;;;;17.95;40.70;102605.47;5152341;27;20746;-49
2023/01/29 04:10:13;;;;;;;0.30;0.30;;;;;;;17.94;40.73;102599.13;5151951;27;20530;-48
2023/01/29 04:12:44;;;;;;;0.38;0.38;;;;;;;17.94;40.73;102607.38;5133687;27;20520;-50
2023/01/29 04:15:14;;;;;;;0.38;0.38;;;;;;;17.94;40.80;102601.03;5161012;27;20038;-49
2023/01/29 04:17:42;;;;;;;0.30;0.30;;;;;;;17.93;40.72;102588.34;5144210;27;20043;-48
2023/01/29 04:20:08;;;;;;;0.38;0.38;;;;;;;17.92;40.67;102584.75;5131440;28;20056;-48
2023/01/29 04:22:38;;;;;;;0.30;0.30;;;;;;;17.92;40.66;102581.97;5131432;28;20043;-49
2023/01/29 04:25:07;;;;;;;0.40;0.40;;;;;;;17.93;40.73;102578.16;5112334;28;20047;-48
2023/01/29 04:27:51;;;;;;;0.40;0.40;;;;;;;17.94;40.72;102566.03;5130681;27;20043;-48
2023/01/29 04:30:27;;;;;;;0.40;0.40;;;;;;;17.94;40.87;102570.72;5112781;28;20502;-50
2023/01/29 04:33:02;;;;;;;0.30;0.30;;;;;;;17.94;40.65;102567.97;5130839;28;20061;-48
2023/01/29 04:35:42;;;;;;;0.30;0.30;;;;;;;17.92;40.78;102570.97;5131261;28;20039;-48
2023/01/29 04:38:24;;;;;;;0.28;0.28;;;;;;;17.93;40.74;102567.13;5130584;27;20047;-48
2023/01/29 04:41:01;;;;;;;0.35;0.35;;;;;;;17.93;40.82;102564.38;5131310;28;20095;-48
2023/01/29 04:43:35;;;;;;;0.30;0.30;;;;;;;17.93;40.73;102563.53;5130936;28;20051;-48
2023/01/29 04:46:11;;;;;;;0.40;0.40;;;;;;;17.94;40.71;102565.19;5130810;27;20051;-49
2023/01/29 04:48:48;;;;;;;0.32;0.32;;;;;;;17.92;40.76;102567.34;5112576;28;20770;-49
2023/01/29 04:51:54;;;;;;;0.30;0.30;;;;;;;17.92;40.65;102568.22;5131088;27;20078;-48
2023/01/29 04:54:43;;;;;;;0.40;0.40;;;;;;;17.92;40.56;102568.22;5104054;28;20078;-49
2023/01/29 04:57:33;;;;;;;0.40;0.40;;;;;;;17.92;40.85;102557.19;5128331;27;20103;-48
2023/01/29 05:00:06;;;;;;;0.30;0.30;;;;;;;17.92;40.76;102556.31;5119132;27;20103;-47
2023/01/29 05:02:36;;;;;;;0.40;0.40;;;;;;;17.92;40.76;102557.19;5115924;27;20372;-48
2023/01/29 05:05:02;;;;;;;0.40;0.40;;;;;;;17.91;40.85;102547.19;5151370;27;20046;-48
2023/01/29 05:07:29;;;;;;;0.30;0.30;;;;;;;17.92;40.59;102546.16;5151140;27;20046;-48
2023/01/29 05:09:55;;;;;;;0.20;0.20;;;;;;;17.93;40.66;102558.00;5132862;27;20051;-49
2023/01/29 05:12:24;;;;;;;0.32;0.32;;;;;;;17.92;40.58;102554.41;5141329;27;20082;-48
2023/01/29 05:14:50;;;;;;;0.40;0.40;;;;;;;17.92;40.73;102550.78;5156266;27;20057;-49
2023/01/29 05:17:18;;;;;;;0.30;0.30;;;;;;;17.92;40.68;102557.19;5150023;27;20062;-48
2023/01/29 05:19:45;;;;;;;0.22;0.22;;;;;;;17.92;40.68;102546.16;5112072;28;20426;-48
2023/01/29 05:22:13;;;;;;;0.40;0.40;;;;;;;17.92;40.75;102537.88;5111830;28;20559;-48
2023/01/29 05:24:39;;;;;;;0.40;0.40;;;;;;;17.93;40.57;102539.56;5130148;28;20650;-48
2023/01/29 05:29:50;;;;;;;0.30;0.30;;;;;;;17.92;40.62;102545.28;5114777;28;20092;-50
2023/01/29 05:32:16;;;;;;;0.30;0.30;;;;;;;17.92;40.59;102537.00;5129905;28;20051;-50
2023/01/29 05:34:42;;;;;;;0.30;0.30;;;;;;;17.92;40.48;102535.13;5130114;28;20043;-48
2023/01/29 05:37:08;;;;;;;0.30;0.30;;;;;;;17.92;40.61;102526.00;5139949;27;20555;-49
2023/01/29 05:39:34;;;;;;;0.30;0.30;;;;;;;17.92;40.72;102526.00;5150276;27;20077;-48
2023/01/29 05:42:00;;;;;;;0.30;0.30;;;;;;;17.92;40.68;102526.84;5150709;27;20051;-48
2023/01/29 05:44:26;;;;;;;0.40;0.40;;;;;;;17.92;40.66;102520.47;5131888;27;20050;-48
2023/01/29 05:46:52;;;;;;;0.30;0.30;;;;;;;17.92;40.62;102528.75;5150342;27;20053;-48
2023/01/29 05:49:19;;;;;;;0.30;0.30;;;;;;;17.92;40.73;102517.72;5150967;27;20610;-48
2023/01/29 05:51:45;;;;;;;0.30;0.30;;;;;;;17.92;40.68;102513.06;5150714;27;20070;-49
2023/01/29 05:54:11;;;;;;;0.40;0.40;;;;;;;17.92;40.72;102512.22;5131782;27;20097;-48
2023/01/29 05:56:38;;;;;;;0.30;0.30;;;;;;;17.92;40.74;102517.72;5150144;27;20545;-48
2023/01/29 05:59:04;;;;;;;0.40;0.40;;;;;;;17.92;40.49;102523.22;5150475;27;20039;-48
2023/01/29 06:01:29;;;;;;;0.30;0.30;;;;;;;17.92;40.79;102529.63;5131553;27;20563;-49
2023/01/29 06:03:55;;;;;;;0.30;0.30;;;;;;;17.92;40.82;102531.50;5131668;27;20042;-48
2023/01/29 06:06:21;;;;;;;0.30;0.30;;;;;;;17.91;40.66;102532.59;5150393;27;20444;-48
2023/01/29 06:08:46;;;;;;;0.57;0.52;;;;;;;17.91;40.70;102540.84;5150388;27;20054;-49
2023/01/29 06:11:13;;;;;;;0.30;0.30;;;;;;;17.92;40.72;102539.78;5131731;27;20474;-48
2023/01/29 06:13:39;;;;;;;0.77;0.77;;;;;;;17.92;40.78;102550.78;5131624;27;20046;-48
2023/01/29 06:16:07;;;;;;;0.40;0.40;;;;;;;17.92;40.80;102548.03;5111701;27;20395;-48
2023/01/29 06:18:33;;;;;;;0.30;0.30;;;;;;;17.92;40.64;102548.03;5150139;27;20051;-49
2023/01/29 06:21:01;;;;;;;0.30;0.30;;;;;;;17.92;40.54;102559.94;5131494;27;20104;-50
2023/01/29 06:23:27;;;;;;;0.30;0.30;;;;;;;17.92;40.58;102559.06;5131604;27;20543;-48
2023/01/29 06:25:53;;;;;;;0.30;0.30;;;;;;;17.92;40.62;102567.34;5150068;27;20042;-48
2023/01/29 06:28:18;;;;;;;0.30;0.30;;;;;;;17.92;40.70;102570.09;5153815;27;20482;-49
2023/01/29 06:30:44;;;;;;;0.30;0.30;;;;;;;17.91;40.72;102583.03;5153894;27;20047;-48
2023/01/29 06:33:10;;;;;;;0.40;0.40;;;;;;;17.91;40.58;102580.28;5153796;27;20054;-49
2023/01/29 06:35:35;;;;;;;0.40;0.40;;;;;;;17.91;40.60;102582.19;5153813;27;20137;-48
2023/01/29 06:38:01;;;;;;;0.40;0.40;;;;;;;17.91;40.71;102577.53;5153706;27;20474;-50
2023/01/29 06:40:26;;;;;;;0.30;0.30;;;;;;;17.90;40.65;102573.09;5153554;27;20047;-49
2023/01/29 06:42:52;;;;;;;0.40;0.40;;;;;;;17.91;40.54;102583.03;5153817;27;20398;-49
2023/01/29 06:45:18;;;;;;;0.40;0.40;;;;;;;17.91;40.65;102583.03;5145176;27;20462;-48
2023/01/29 06:47:43;;;;;;;0.40;0.40;;;;;;;17.91;40.90;102587.72;5147243;27;20138;-48
2023/01/29 06:50:10;;;;;;;0.40;0.40;;;;;;;17.92;40.80;102583.88;5153519;27;20053;-48
2023/01/29 06:52:35;;;;;;;0.40;0.40;;;;;;;17.91;40.60;102582.19;5153449;27;20051;-48
2023/01/29 06:55:01;;;;;;;0.40;0.40;;;;;;;17.90;40.62;102575.84;5153587;27;20073;-48
2023/01/29 06:57:28;;;;;;;0.40;0.40;;;;;;;17.91;40.72;102569.25;5152972;27;20051;-48
2023/01/29 06:59:54;;;;;;;0.40;0.40;;;;;;;17.91;40.60;102558.22;5134761;27;20050;-49
2023/01/29 07:02:20;;;;;;;0.40;0.40;;;;;;;17.91;40.76;102560.16;5153153;27;20058;-50
2023/01/29 07:04:45;;;;;;;0.40;0.40;;;;;;;17.91;40.83;102546.38;5153121;27;20053;-48
2023/01/29 07:07:12;;;;;;;0.40;0.40;;;;;;;17.91;40.72;102551.88;5153303;27;20390;-47
2023/01/29 07:09:40;;;;;;;0.40;0.40;;;;;;;17.91;40.65;102565.66;5152938;27;20054;-48
2023/01/29 07:12:05;;;;;;;0.30;0.30;;;;;;;17.91;40.37;102555.47;5117538;27;20127;-49
2023/01/29 07:14:31;;;;;;;0.40;0.40;;;;;;;17.91;40.68;102558.22;5156398;27;20085;-48
2023/01/29 07:16:57;;;;;;;0.40;0.40;;;;;;;17.92;40.68;102561.81;5157693;27;20039;-48
2023/01/29 07:19:22;;;;;;;0.40;0.40;;;;;;;17.91;40.84;102566.50;5132252;27;20256;-48
2023/01/29 07:21:48;;;;;;;0.50;0.40;;;;;;;17.91;40.63;102568.41;5132245;28;20053;-50
2023/01/29 07:24:15;;;;;;;0.30;0.30;;;;;;;17.91;40.50;102571.16;5132300;28;20043;-48
2023/01/29 07:26:41;;;;;;;0.30;0.30;;;;;;;17.90;40.59;102575.84;5113420;28;20384;-48
2023/01/29 07:29:06;;;;;;;0.40;0.40;;;;;;;17.92;40.73;102570.09;5113495;28;20506;-48
2023/01/29 07:31:32;;;;;;;0.30;0.30;;;;;;;17.90;40.50;102567.56;5131751;28;20379;-49
2023/01/29 07:33:58;;;;;;;0.30;0.30;;;;;;;17.92;40.61;102570.97;5113712;28;20564;-48
2023/01/29 07:36:24;;;;;;;0.30;0.30;;;;;;;17.90;40.51;102564.81;5135426;27;20042;-48
2023/01/29 07:38:50;;;;;;;0.30;0.30;;;;;;;17.91;40.76;102562.91;5151969;27;20414;-49
2023/01/29 07:41:16;;;;;;;0.30;0.30;;;;;;;17.91;40.66;102560.16;5152713;27;20396;-49
2023/01/29 07:43:41;;;;;;;0.40;0.40;;;;;;;17.90;40.69;102556.56;5130452;28;20046;-48
2023/01/29 07:46:07;;;;;;;0.30;0.30;;;;;;;17.91;40.49;102549.13;5132596;27;20475;-48
2023/01/29 07:48:33;;;;;;;0.60;0.55;;;;;;;17.91;40.66;102549.13;5133907;27;20115;-48
2023/01/29 07:50:59;;;;;;;0.40;0.40;;;;;;;17.90;40.60;102558.47;5152466;27;20394;-48
2023/01/29 07:53:25;;;;;;;0.40;0.40;;;;;;;17.91;40.75;102565.66;5152512;27;20046;-48
2023/01/29 07:55:51;;;;;;;0.40;0.40;;;;;;;17.90;40.66;102566.75;5133563;27;20538;-48
2023/01/29 07:58:16;;;;;;;0.30;0.30;;;;;;;17.90;40.69;102559.31;5133517;27;20051;-48
2023/01/29 08:00:42;;;;;;;0.30;0.30;;;;;;;17.90;40.71;102540.03;5152455;27;20043;-48
2023/01/29 08:03:12;;;;;;;0.30;0.30;;;;;;;17.91;40.60;102527.91;5152229;27;20395;-48
2023/01/29 08:05:38;;;;;;;0.40;0.40;;;;;;;17.89;40.67;102530.06;5116656;27;20600;-50
2023/01/29 08:08:03;;;;;;;0.40;0.40;;;;;;;17.90;40.75;102522.63;5152092;27;20047;-47
2023/01/29 08:10:34;;;;;;;0.30;0.30;;;;;;;17.89;40.85;102535.59;5152074;27;20054;-48
2023/01/29 08:13:01;;;;;;;0.40;0.40;;;;;;;17.90;40.51;102534.50;5116797;27;20091;-48
2023/01/29 08:15:27;;;;;;;0.30;0.30;;;;;;;17.90;40.79;102542.78;5112961;28;20074;-49
2023/01/29 08:17:53;;;;;;;0.40;0.40;;;;;;;17.91;40.62;102551.88;5128618;27;20039;-49
2023/01/29 08:20:39;;;;;;;0.40;0.40;;;;;;;17.90;40.64;102564.81;5122475;27;20055;-49
2023/01/29 08:23:07;;;;;;;0.30;0.30;;;;;;;17.90;40.84;102552.97;5152190;27;20042;-48
2023/01/29 08:25:33;;;;;;;0.35;0.35;;;;;;;17.90;40.55;102548.28;5116148;27;20486;-48
2023/01/29 08:27:59;;;;;;;0.40;0.40;;;;;;;17.91;40.59;102551.88;5151813;27;20050;-47
2023/01/29 08:30:30;;;;;;;0.40;0.40;;;;;;;17.91;40.48;102552.72;5133003;27;20047;-48
2023/01/29 08:32:56;;;;;;;0.30;0.30;;;;;;;17.89;40.60;102546.59;5133147;27;20095;-49
2023/01/29 08:35:21;;;;;;;0.40;0.40;;;;;;;17.91;40.58;102552.72;5133262;27;20409;-48
2023/01/29 08:37:57;;;;;;;0.40;0.40;;;;;;;17.90;40.77;102553.78;5133057;27;20053;-48
2023/01/29 08:40:22;;;;;;;0.40;0.40;;;;;;;17.90;40.69;102540.03;5133481;27;20078;-48
2023/01/29 08:42:48;;;;;;;0.30;0.30;;;;;;;17.91;40.50;102549.13;5151791;27;20050;-49
2023/01/29 08:45:14;;;;;;;0.40;0.40;;;;;;;17.90;40.60;102536.41;5152131;27;20095;-48
2023/01/29 08:47:44;;;;;;;0.32;0.32;;;;;;;17.90;40.59;102537.25;5150955;27;20050;-48
2023/01/29 08:50:10;;;;;;;0.40;0.40;;;;;;;17.90;40.61;102528.16;5150547;27;20297;-48
2023/01/29 08:52:36;;;;;;;0.30;0.30;;;;;;;17.89;40.75;102530.06;5129231;28;20478;-48
2023/01/29 08:55:02;;;;;;;0.30;0.30;;;;;;;17.89;40.58;102532.81;5130923;28;20047;-48
2023/01/29 08:57:27;;;;;;;0.40;0.40;;;;;;;17.90;40.57;102536.41;5142572;27;20099;-48
2023/01/29 08:59:53;;;;;;;0.30;0.30;;;;;;;17.89;40.64;102538.34;5151437;27;20046;-49
2023/01/29 09:02:19;;;;;;;0.30;0.30;;;;;;;17.90;40.55;102544.69;5151074;27;20054;-48
2023/01/29 09:04:45;;;;;;;0.30;0.30;;;;;;;17.90;40.62;102551.03;5151712;27;20347;-47
2023/01/29 09:07:10;;;;;;;0.40;0.40;;;;;;;17.89;40.54;102537.50;5151195;27;20183;-48
2023/01/29 09:09:37;;;;;;;0.30;0.30;;;;;;;17.90;40.66;102530.91;5151063;27;20087;-48
2023/01/29 09:12:03;;;;;;;0.40;0.40;;;;;;;17.89;40.90;102524.56;5151168;27;20479;-48
2023/01/29 09:14:28;;;;;;;0.40;0.40;;;;;;;17.89;40.99;102515.44;5129872;27;20053;-48
2023/01/29 09:16:54;;;;;;;0.30;0.30;;;;;;;17.89;40.82;102510.78;5137795;27;20050;-48
2023/01/29 09:19:19;;;;;;;0.30;0.30;;;;;;;17.90;40.40;102511.63;5151348;27;20055;-48
2023/01/29 09:21:45;;;;;;;0.40;0.40;;;;;;;17.90;40.55;102509.69;5151173;27;20079;-49
2023/01/29 09:24:11;;;;;;;0.30;0.30;;;;;;;17.90;40.65;102517.13;5150846;27;20046;-48
2023/01/29 09:26:38;;;;;;;0.30;0.30;;;;;;;17.90;40.65;102519.88;5150886;27;20072;-47
2023/01/29 09:29:04;;;;;;;0.30;0.30;;;;;;;17.89;40.56;102523.72;5151025;27;20043;-49
2023/01/29 09:31:29;;;;;;;0.30;0.30;;;;;;;17.89;40.75;102512.69;5150504;27;20498;-47
2023/01/29 09:33:55;;;;;;;0.40;0.40;;;;;;;17.88;40.76;102503.59;5150982;27;20050;-50
2023/01/29 09:36:21;;;;;;;0.30;0.30;;;;;;;17.90;40.59;102500.59;5150427;27;20047;-51
2023/01/29 09:38:46;;;;;;;0.40;0.40;;;;;;;17.89;40.59;102496.16;5150713;27;20049;-48
2023/01/29 09:41:52;;;;;;;0.30;0.30;;;;;;;17.89;40.67;102491.50;5150800;27;20065;-47
2023/01/29 09:44:36;;;;;;;0.40;0.40;;;;;;;17.89;40.64;102498.91;5123739;27;20424;-48
2023/01/29 09:47:04;;;;;;;0.30;0.30;;;;;;;17.89;40.61;102482.38;5150691;27;20049;-47
2023/01/29 09:49:36;;;;;;;0.30;0.30;;;;;;;17.88;40.64;102481.53;5132392;27;20055;-48
2023/01/29 09:52:09;;;;;;;0.40;0.40;;;;;;;17.89;40.66;102474.94;5142319;27;20460;-48
2023/01/29 09:54:49;;;;;;;0.30;0.30;;;;;;;17.90;40.61;102486.81;5129903;28;20044;-48
2023/01/29 09:57:39;;;;;;;0.30;0.30;;;;;;;17.89;40.65;102479.63;5121275;27;20039;-49
2023/01/29 10:00:06;;;;;;;0.40;0.40;;;;;;;17.90;40.63;102481.31;5134954;27;20074;-49
2023/01/29 10:02:58;;;;;;;0.40;0.40;;;;;;;17.89;40.54;102476.88;5149668;27;20051;-48
2023/01/29 10:05:31;;;;;;;0.40;0.40;;;;;;;17.88;40.65;102476.03;5118780;27;20050;-49
2023/01/29 10:08:35;;;;;;;0.30;0.30;;;;;;;17.89;40.64;102472.19;5150189;27;20043;-47
2023/01/29 10:13:47;;;;;;;0.30;0.30;;;;;;;17.91;40.63;102477.47;5188165;27;20386;-46
2023/01/29 10:16:43;;;;;;;0.40;0.40;;;;;;;17.92;40.53;102484.66;5164789;27;20053;-45
2023/01/29 10:19:35;;;;;;;0.30;0.30;;;;;;;17.90;40.45;102482.13;5144517;27;20053;-44
2023/01/29 10:22:11;;;;;;;0.30;0.30;;;;;;;17.90;40.57;102481.31;5132453;27;20042;-45
2023/01/29 10:24:41;;;;;;;0.30;0.30;;;;;;;17.90;40.60;102484.06;5146660;27;20112;-47
2023/01/29 10:27:12;;;;;;;0.30;0.30;;;;;;;17.89;40.48;102485.97;5113054;28;20046;-46
2023/01/29 10:29:40;;;;;;;0.40;0.40;;;;;;;17.89;40.56;102485.13;5124875;27;20154;-46
2023/01/29 10:32:13;;;;;;;0.30;0.30;;;;;;;17.89;40.56;102485.97;5127805;27;20505;-46
2023/01/29 10:34:43;;;;;;;0.40;0.40;;;;;;;17.89;40.73;102476.88;5146605;27;20043;-46
2023/01/29 10:37:15;;;;;;;0.40;0.40;;;;;;;17.89;40.44;102474.13;5137089;27;20491;-45
2023/01/29 10:39:41;;;;;;;0.40;0.40;;;;;;;17.88;40.63;102478.78;5104964;28;20050;-46
2023/01/29 10:42:21;;;;;;;0.40;0.40;;;;;;;17.88;40.60;102476.03;5126113;28;20051;-48
2023/01/29 10:45:17;;;;;;;0.30;0.30;;;;;;;17.88;40.57;102470.53;5091207;28;20043;-47
2023/01/29 10:48:24;;;;;;;0.30;0.30;;;;;;;17.89;40.78;102474.94;5124563;27;20051;-48
2023/01/29 10:51:05;;;;;;;0.40;0.40;;;;;;;17.89;40.58;102471.34;5112941;28;20047;-49
2023/01/29 10:53:41;;;;;;;0.40;0.40;;;;;;;17.88;40.63;102456.75;5125728;28;20116;-50
2023/01/29 10:56:36;;;;;;;0.30;0.30;;;;;;;17.88;40.61;102450.38;5144967;27;20047;-48
2023/01/29 10:59:34;;;;;;;0.40;0.40;;;;;;;17.87;40.65;102444.00;5124795;28;20055;-50
2023/01/29 11:02:02;;;;;;;0.40;0.40;;;;;;;17.89;40.54;102447.38;5110214;28;20059;-48
2023/01/29 11:04:29;;;;;;;0.30;0.30;;;;;;;17.88;40.59;102442.97;5125851;28;20048;-48
2023/01/29 11:06:55;;;;;;;0.30;0.30;;;;;;;17.88;40.66;102440.19;5125564;27;20047;-47
2023/01/29 11:09:41;;;;;;;0.30;0.30;;;;;;;17.89;40.69;102432.78;5125406;27;20493;-48
2023/01/29 11:12:16;;;;;;;0.30;0.30;;;;;;;17.88;40.73;102431.09;5093157;28;20071;-47
2023/01/29 11:14:47;;;;;;;0.30;0.30;;;;;;;17.88;40.59;102426.41;5107054;28;20474;-48
2023/01/29 11:17:15;;;;;;;0.30;0.30;;;;;;;17.88;40.68;102425.59;5125230;27;20395;-48
2023/01/29 11:19:43;;;;;;;0.40;0.40;;;;;;;17.88;40.64;102418.16;5125379;27;20505;-47
2023/01/29 11:22:15;;;;;;;0.40;0.40;;;;;;;17.88;40.58;102423.66;5125572;28;20044;-49
2023/01/29 11:24:41;;;;;;;0.40;0.40;;;;;;;17.87;40.57;102410.94;5113489;28;20047;-48
2023/01/29 11:27:22;;;;;;;0.30;0.30;;;;;;;17.87;40.65;102410.94;5111253;28;20048;-48
2023/01/29 11:29:48;;;;;;;0.40;0.40;;;;;;;17.87;40.65;102413.69;5111599;28;20075;-49
2023/01/29 11:37:37;;;;;;;0.30;0.30;;;;;;;17.87;40.69;102405.44;5175759;27;20201;-45
2023/01/29 11:42:53;;;;;;;0.40;0.40;;;;;;;17.87;40.76;102397.16;5188981;27;20464;-47
2023/01/29 11:45:24;;;;;;;0.30;0.30;;;;;;;17.88;40.66;102396.09;5167945;27;20050;-47
2023/01/29 11:47:53;;;;;;;0.30;0.30;;;;;;;17.89;40.77;102391.44;5167603;27;20045;-45
2023/01/29 11:50:22;;;;;;;0.30;0.30;;;;;;;17.88;40.78;102381.50;5149315;27;20498;-45
2023/01/29 11:52:47;;;;;;;;;;;;;;;17.89;40.58;102377.66;5132472;27;20058;-45
2023/01/29 11:55:19;;;;;;;0.40;0.40;;;;;;;17.88;40.68;102359.44;5167508;27;19929;-45
2023/01/29 11:57:48;;;;;;;0.30;0.30;;;;;;;17.87;40.74;102357.75;5148764;27;20038;-46
2023/01/29 12:00:21;;;;;;;0.30;0.30;;;;;;;17.88;40.70;102362.19;5149104;27;20532;-47
2023/01/29 12:02:53;;;;;;;0.40;0.40;;;;;;;17.88;40.60;102348.41;5148377;27;20413;-45
2023/01/29 12:05:22;;;;;;;0.40;0.40;;;;;;;17.87;40.71;102343.97;5148895;27;20042;-45
2023/01/29 12:07:49;;;;;;;0.30;0.30;;;;;;;17.87;40.71;102336.53;5148844;27;20050;-46
2023/01/29 12:10:36;;;;;;;0.20;0.20;;;;;;;17.86;40.83;102326.59;5167396;27;20095;-45
2023/01/29 12:13:18;;;;;;;0.40;0.40;;;;;;;17.87;40.53;102311.72;5134534;27;20050;-46